Etusivu
METAR-TAF:

METAR-TAF

Lentoasemat :

Stewart, Brittiläinen Kolumbia, Kanada

Leveyspiiri: 55-56N, Pituuspiiri: 129-59W, korkeus merenpinnasta: 7 m

Tämänhetkinen sää

Tämä raportti tehtiin 30 minuuttia sitten, kello 20.00 UTC
Tuuli 3 kn idästä, vaihdellen idän ja etelän välillä
Lämpötila 14°C
Kosteus 77%
Ilmanpaine 1024 hPa
Näkyvyys: 24.1 km
Muutamia pilviä 2500 ft:n korkeudessa
Hajanaisia pilviä 4500 ft:n korkeudessa
Hajonneita pilviä 6500 ft:n korkeudessa
Pilvistä 12000 ft:n korkeudessa

METAR: CZST 172000Z 09003KT 080V170 15SM FEW025 SCT045 BKN065 OVC120 14/10 A3024 RMK SC1SC3SC2AC2 SLP240

Aika: 13:30 (20:30 UTC)


TAF: puuttuu

Säähavainnot ja -ennusteet yli 4000 lentoasemalta (METAR- ja TAF-raportit).

Käytössä olevat sääasemat on merkitty karttaan keltaisilla ja punaisilla pisteillä.

Aseta hiiri pisteen päälle nähdäksesi sääaseman nimen.

Klikkaa sitten nähdäksesi säähavainnot ja -ennusteet.

Kartan vaihtaminen: klikkaa mustalla rastilla varustettuja vihreitä pisteitä, niin voit zoomata sisään; viivalla varustettua vihreää pistettä, niin voit zoomata ulos tai vihreitä nuolia, niin pääset viereisille kartoille.


METAR-TAF: